MLD101 LUKK-LYTV
Flight info
| Callsign | MLD101 |
|---|---|
| Flight time | N/A |
| Altitude | 32000 |
| Route | N0510F320 POGAV BCU ANASA CICEV POD |
| Aircraft | T154/M-G/L |
Departure
| Time | 2026-05-06 07:14 |
|---|---|
| Airport | Chişinău International Airport (LUKK) |
Arrival
| Time | N/A |
|---|---|
| Airport | Tivat Airport (LYTV) |
| Time | Latitude | Longitude | Altitude | Speed | Heading |
|---|---|---|---|---|---|
| 2026-05-06 07:08 | 46.93368 | 28.93729 | 336 ft | 0 kts | 7° |
| 2026-05-06 07:11 | 46.93375 | 28.93730 | 336 ft | 5 kts | 6° |
| 2026-05-06 07:11 | 46.93411 | 28.93668 | 336 ft | 12 kts | 269° |
| 2026-05-06 07:11 | 46.93411 | 28.93637 | 336 ft | 6 kts | 273° |
| 2026-05-06 07:12 | 46.93413 | 28.93558 | 336 ft | 11 kts | 265° |
| 2026-05-06 07:12 | 46.93367 | 28.93363 | 336 ft | 22 kts | 249° |
| 2026-05-06 07:12 | 46.93291 | 28.93068 | 336 ft | 43 kts | 253° |
| 2026-05-06 07:12 | 46.93229 | 28.92697 | 336 ft | 30 kts | 253° |
| 2026-05-06 07:13 | 46.93139 | 28.92440 | 336 ft | 29 kts | 202° |
| 2026-05-06 07:13 | 46.92892 | 28.92682 | 336 ft | 79 kts | 113° |
| 2026-05-06 07:13 | 46.92795 | 28.93797 | 336 ft | 149 kts | 83° |
| 2026-05-06 07:13 | 46.92886 | 28.95599 | 706 ft | 189 kts | 87° |
| 2026-05-06 07:14 | 46.92737 | 28.97596 | 1613 ft | 204 kts | 109° |
| 2026-05-06 07:14 | 46.91976 | 28.99292 | 2757 ft | 201 kts | 144° |
| 2026-05-06 07:14 | 46.90585 | 28.99904 | 3506 ft | 234 kts | 184° |
| 2026-05-06 07:14 | 46.88882 | 28.99773 | 4573 ft | 252 kts | 185° |
| 2026-05-06 07:15 | 46.87123 | 28.99114 | 5275 ft | 278 kts | 206° |
| 2026-05-06 07:15 | 46.85505 | 28.97452 | 4804 ft | 292 kts | 227° |
| 2026-05-06 07:15 | 46.84562 | 28.95056 | 4791 ft | 267 kts | 253° |
| 2026-05-06 07:15 | 46.84170 | 28.92591 | 5559 ft | 250 kts | 262° |
| 2026-05-06 07:16 | 46.83908 | 28.90017 | 5881 ft | 255 kts | 264° |
| 2026-05-06 07:16 | 46.83699 | 28.87452 | 6312 ft | 254 kts | 264° |
| 2026-05-06 07:16 | 46.83507 | 28.84885 | 6741 ft | 253 kts | 264° |
| 2026-05-06 07:16 | 46.83323 | 28.82371 | 7160 ft | 252 kts | 264° |
| 2026-05-06 07:17 | 46.83137 | 28.79817 | 7587 ft | 252 kts | 264° |
| 2026-05-06 07:17 | 46.82951 | 28.77261 | 8013 ft | 253 kts | 264° |
| 2026-05-06 07:17 | 46.82774 | 28.74822 | 8420 ft | 254 kts | 264° |
| 2026-05-06 07:17 | 46.82601 | 28.72440 | 8815 ft | 255 kts | 264° |
| 2026-05-06 07:18 | 46.82419 | 28.69945 | 9227 ft | 256 kts | 264° |
| 2026-05-06 07:18 | 46.82240 | 28.67475 | 9633 ft | 258 kts | 264° |
| 2026-05-06 07:18 | 46.82066 | 28.65098 | 10021 ft | 259 kts | 264° |
| 2026-05-06 07:18 | 46.81881 | 28.62558 | 10435 ft | 263 kts | 264° |
| 2026-05-06 07:19 | 46.81688 | 28.59906 | 10860 ft | 268 kts | 264° |
| 2026-05-06 07:19 | 46.81489 | 28.57179 | 11288 ft | 271 kts | 264° |
| 2026-05-06 07:19 | 46.81288 | 28.54422 | 11716 ft | 274 kts | 264° |
| 2026-05-06 07:19 | 46.81085 | 28.51644 | 12143 ft | 276 kts | 264° |
| 2026-05-06 07:20 | 46.80880 | 28.48843 | 12570 ft | 279 kts | 264° |
| 2026-05-06 07:20 | 46.80673 | 28.46023 | 12996 ft | 281 kts | 264° |
| 2026-05-06 07:20 | 46.80465 | 28.43173 | 13424 ft | 282 kts | 264° |
| 2026-05-06 07:20 | 46.80255 | 28.40314 | 13850 ft | 284 kts | 264° |
| 2026-05-06 07:21 | 46.80043 | 28.37429 | 14278 ft | 286 kts | 264° |
| 2026-05-06 07:21 | 46.79832 | 28.34559 | 14700 ft | 288 kts | 264° |
| 2026-05-06 07:21 | 46.79606 | 28.31645 | 15127 ft | 290 kts | 264° |
| 2026-05-06 07:21 | 46.79362 | 28.28715 | 15553 ft | 292 kts | 263° |
| 2026-05-06 07:22 | 46.79113 | 28.25770 | 15979 ft | 293 kts | 264° |
| 2026-05-06 07:22 | 46.78879 | 28.22802 | 16406 ft | 295 kts | 264° |
| 2026-05-06 07:22 | 46.78640 | 28.19802 | 16834 ft | 297 kts | 263° |
| 2026-05-06 07:22 | 46.78391 | 28.16831 | 17256 ft | 299 kts | 263° |
| 2026-05-06 07:23 | 46.78008 | 28.13833 | 17682 ft | 301 kts | 258° |
| 2026-05-06 07:23 | 46.77485 | 28.10857 | 18110 ft | 304 kts | 256° |
| 2026-05-06 07:23 | 46.76900 | 28.07873 | 18538 ft | 306 kts | 255° |
| 2026-05-06 07:23 | 46.76292 | 28.04888 | 18965 ft | 308 kts | 254° |
| 2026-05-06 07:24 | 46.75672 | 28.01893 | 19391 ft | 309 kts | 254° |
| 2026-05-06 07:24 | 46.75050 | 27.98913 | 19803 ft | 312 kts | 254° |
| 2026-05-06 07:24 | 46.74415 | 27.95875 | 20207 ft | 314 kts | 254° |
| 2026-05-06 07:24 | 46.73774 | 27.92816 | 20609 ft | 316 kts | 254° |
| 2026-05-06 07:25 | 46.73129 | 27.89734 | 21011 ft | 318 kts | 254° |
| 2026-05-06 07:25 | 46.72478 | 27.86631 | 21403 ft | 320 kts | 254° |
| 2026-05-06 07:25 | 46.72046 | 27.84569 | 21654 ft | 322 kts | 254° |
| 2026-05-06 07:25 | 46.71389 | 27.81431 | 22032 ft | 324 kts | 254° |
| 2026-05-06 07:26 | 46.70736 | 27.78318 | 22404 ft | 326 kts | 254° |
| 2026-05-06 07:26 | 46.70062 | 27.75100 | 22786 ft | 328 kts | 254° |
| 2026-05-06 07:26 | 46.69403 | 27.71955 | 23141 ft | 330 kts | 254° |
| 2026-05-06 07:26 | 46.68507 | 27.67682 | 23610 ft | 333 kts | 254° |
| 2026-05-06 07:27 | 46.68049 | 27.65500 | 23848 ft | 334 kts | 254° |
| 2026-05-06 07:27 | 46.67378 | 27.62297 | 24194 ft | 336 kts | 254° |
| 2026-05-06 07:27 | 46.66692 | 27.59030 | 24544 ft | 338 kts | 254° |
| 2026-05-06 07:27 | 46.66001 | 27.55733 | 24882 ft | 340 kts | 254° |
| 2026-05-06 07:28 | 46.65306 | 27.52425 | 25211 ft | 342 kts | 254° |
| 2026-05-06 07:28 | 46.64608 | 27.49097 | 25538 ft | 344 kts | 254° |
| 2026-05-06 07:28 | 46.63206 | 27.42418 | 26187 ft | 348 kts | 254° |
| 2026-05-06 07:29 | 46.62495 | 27.39030 | 26509 ft | 350 kts | 254° |
| 2026-05-06 07:29 | 46.61780 | 27.35626 | 26814 ft | 352 kts | 254° |
| 2026-05-06 07:29 | 46.61068 | 27.32236 | 27114 ft | 354 kts | 254° |
| 2026-05-06 07:29 | 46.60347 | 27.28804 | 27415 ft | 356 kts | 254° |
| 2026-05-06 07:30 | 46.59620 | 27.25343 | 27716 ft | 358 kts | 254° |
| 2026-05-06 07:30 | 46.58890 | 27.21871 | 28018 ft | 360 kts | 254° |
| 2026-05-06 07:30 | 46.58158 | 27.18389 | 28313 ft | 361 kts | 254° |
| 2026-05-06 07:30 | 46.57420 | 27.14880 | 28595 ft | 364 kts | 254° |
| 2026-05-06 07:31 | 46.56678 | 27.11353 | 28872 ft | 365 kts | 254° |
| 2026-05-06 07:31 | 46.55933 | 27.07812 | 29148 ft | 367 kts | 254° |
| 2026-05-06 07:31 | 46.55184 | 27.04256 | 29424 ft | 369 kts | 254° |
| 2026-05-06 07:31 | 46.54414 | 27.00690 | 29700 ft | 371 kts | 253° |
| 2026-05-06 07:32 | 46.53631 | 26.97119 | 29975 ft | 372 kts | 253° |
| 2026-05-06 07:32 | 46.52856 | 26.93518 | 30242 ft | 374 kts | 253° |
| 2026-05-06 07:32 | 46.52094 | 26.89939 | 30494 ft | 376 kts | 254° |
| 2026-05-06 07:32 | 46.51304 | 26.86310 | 30744 ft | 378 kts | 252° |
| 2026-05-06 07:33 | 46.50228 | 26.82798 | 30996 ft | 381 kts | 244° |
| 2026-05-06 07:33 | 46.48903 | 26.79435 | 31249 ft | 383 kts | 240° |